createdAt,value
2023-02-12T05:15:20.980Z,0.00
2023-02-12T05:16:21.012Z,0.00
2023-02-12T05:17:20.950Z,0.00
2023-02-12T05:18:21.031Z,0.00
2023-02-12T05:19:20.921Z,0.00
2023-02-12T05:20:20.901Z,0.00
2023-02-12T05:21:20.898Z,0.00
2023-02-12T05:22:20.878Z,0.00
2023-02-12T05:23:20.880Z,0.00
2023-02-12T05:24:20.851Z,0.00
2023-02-12T05:25:20.848Z,0.00
2023-02-12T05:26:20.846Z,0.00
2023-02-12T05:27:20.832Z,0.00
2023-02-12T05:28:20.831Z,0.00
2023-02-12T05:29:20.791Z,0.00
2023-02-12T05:30:20.779Z,0.00
2023-02-12T05:31:21.601Z,0.00
2023-02-12T05:32:20.790Z,0.00
2023-02-12T05:33:20.758Z,0.00
2023-02-12T05:34:20.729Z,0.00
2023-02-12T05:35:20.723Z,0.00
2023-02-12T05:36:20.714Z,0.00
2023-02-12T05:37:20.688Z,0.00
2023-02-12T05:38:20.689Z,0.00
2023-02-12T05:39:20.669Z,0.00
2023-02-12T05:40:20.656Z,0.00
2023-02-12T05:41:20.653Z,0.00
2023-02-12T05:42:20.625Z,0.00
2023-02-12T05:43:20.635Z,0.00
2023-02-12T05:44:20.612Z,0.00
2023-02-12T05:45:20.584Z,0.00
2023-02-12T05:46:20.603Z,0.00
2023-02-12T05:47:20.564Z,0.00
2023-02-12T05:48:20.580Z,0.00
2023-02-12T05:49:20.541Z,0.00
2023-02-12T05:50:20.524Z,0.00
2023-02-12T05:51:20.515Z,0.00
2023-02-12T05:52:20.493Z,0.00
2023-02-12T05:53:20.491Z,0.00
2023-02-12T05:54:20.463Z,0.00
2023-02-12T05:55:20.452Z,0.00
2023-02-12T05:56:20.455Z,0.00
2023-02-12T05:57:20.429Z,0.00
2023-02-12T05:58:20.435Z,0.00
2023-02-12T05:59:20.408Z,0.00
2023-02-12T06:00:20.391Z,0.00
2023-02-12T06:01:20.372Z,0.00
2023-02-12T06:02:20.408Z,0.00
2023-02-12T06:03:20.370Z,0.00
2023-02-12T06:04:20.413Z,0.00
2023-02-12T06:05:20.328Z,0.00
2023-02-12T06:06:20.324Z,0.00
2023-02-12T06:07:20.299Z,0.00
2023-02-12T06:08:20.301Z,0.00
2023-02-12T06:09:20.273Z,0.00
2023-02-12T06:10:20.268Z,0.00
2023-02-12T06:11:20.267Z,0.00
2023-02-12T06:12:20.238Z,0.00
2023-02-12T06:13:20.236Z,0.00
2023-02-12T06:14:20.227Z,0.00
2023-02-12T06:15:20.193Z,0.00
2023-02-12T06:16:20.258Z,0.00
2023-02-12T06:17:20.166Z,0.00
2023-02-12T06:18:20.168Z,0.00
2023-02-12T06:19:20.153Z,0.00
2023-02-12T06:20:20.138Z,0.00
2023-02-12T06:21:20.126Z,0.00
2023-02-12T06:22:20.114Z,0.00
2023-02-12T06:23:20.120Z,0.00
2023-02-12T06:24:20.105Z,0.00
2023-02-12T06:25:20.070Z,0.00
2023-02-12T06:26:20.085Z,0.00
2023-02-12T06:27:20.055Z,0.00
2023-02-12T06:28:20.065Z,0.00
2023-02-12T06:29:20.027Z,0.00
2023-02-12T06:30:20.016Z,0.00
2023-02-12T06:31:20.136Z,0.00
2023-02-12T06:32:20.079Z,0.00
2023-02-12T06:33:19.972Z,0.00
2023-02-12T06:34:19.985Z,0.00
2023-02-12T06:35:19.941Z,0.00
2023-02-12T06:36:19.931Z,0.00
2023-02-12T06:37:19.908Z,0.00
2023-02-12T06:38:19.912Z,0.00
2023-02-12T06:39:19.899Z,0.00
2023-02-12T06:40:19.878Z,0.00
2023-02-12T06:41:19.865Z,0.00
2023-02-12T06:42:19.852Z,0.00
2023-02-12T06:43:19.838Z,0.00
2023-02-12T06:44:19.847Z,0.00
2023-02-12T06:45:19.811Z,0.00
2023-02-12T06:46:19.856Z,0.00
2023-02-12T06:47:19.788Z,0.00
2023-02-12T06:48:19.781Z,0.00
2023-02-12T06:49:19.777Z,0.00
2023-02-12T06:50:19.756Z,0.00
2023-02-12T06:51:19.736Z,0.00
2023-02-12T06:52:19.735Z,0.00
2023-02-12T06:53:19.708Z,0.00
2023-02-12T06:54:19.713Z,0.00
2023-02-12T06:55:19.677Z,0.00
2023-02-12T06:56:19.681Z,0.00
2023-02-12T06:57:19.664Z,0.00
2023-02-12T06:58:19.650Z,0.00
2023-02-12T06:59:19.639Z,0.00
2023-02-12T07:00:19.624Z,0.00
2023-02-12T07:01:19.624Z,0.00
2023-02-12T07:02:19.596Z,0.00
2023-02-12T07:03:19.576Z,0.00
2023-02-12T07:04:19.661Z,0.00
2023-02-12T07:05:19.558Z,5.62
2023-02-12T07:06:19.591Z,5.62
2023-02-12T07:07:19.534Z,5.62
2023-02-12T07:08:19.516Z,5.62
2023-02-12T07:09:19.530Z,5.62
2023-02-12T07:10:19.504Z,5.62
2023-02-12T07:11:19.562Z,5.62
2023-02-12T07:12:19.475Z,5.62
2023-02-12T07:13:19.453Z,5.62
2023-02-12T07:14:19.457Z,5.62
2023-02-12T07:15:19.424Z,5.62
2023-02-12T07:16:19.485Z,5.62
2023-02-12T07:17:19.405Z,5.62
2023-02-12T07:18:19.393Z,5.62
2023-02-12T07:19:19.392Z,5.62
2023-02-12T07:20:19.367Z,11.25
2023-02-12T07:21:19.343Z,11.25
2023-02-12T07:22:19.341Z,11.25
2023-02-12T07:23:19.327Z,11.25
2023-02-12T07:24:19.338Z,11.25
2023-02-12T07:25:19.292Z,11.25
2023-02-12T07:26:19.294Z,11.25
2023-02-12T07:27:19.276Z,11.25
2023-02-12T07:28:19.302Z,11.25
2023-02-12T07:29:19.255Z,16.88
2023-02-12T07:30:19.233Z,16.88
2023-02-12T07:31:19.421Z,16.88
2023-02-12T07:32:19.212Z,16.88
2023-02-12T07:33:19.191Z,16.88
2023-02-12T07:34:19.191Z,16.88
2023-02-12T07:35:19.161Z,16.88
2023-02-12T07:36:19.181Z,16.88
2023-02-12T07:37:19.142Z,22.50
2023-02-12T07:38:19.130Z,22.50
2023-02-12T07:39:19.130Z,22.50
2023-02-12T07:40:19.112Z,22.50
2023-02-12T07:41:19.097Z,22.50
2023-02-12T07:42:19.078Z,22.50
2023-02-12T07:43:19.060Z,22.50
2023-02-12T07:44:19.069Z,22.50
2023-02-12T07:45:19.039Z,28.12
2023-02-12T07:46:19.134Z,28.12
2023-02-12T07:47:19.009Z,28.12
2023-02-12T07:48:18.999Z,28.12
2023-02-12T07:49:18.998Z,28.12
2023-02-12T07:50:18.981Z,28.12
2023-02-12T07:51:18.969Z,28.12
2023-02-12T07:52:18.950Z,33.75
2023-02-12T07:53:18.939Z,33.75
2023-02-12T07:54:18.941Z,33.75
2023-02-12T07:55:18.917Z,33.75
2023-02-12T07:56:18.907Z,33.75
2023-02-12T07:57:18.878Z,33.75
2023-02-12T07:58:18.869Z,33.75
2023-02-12T07:59:18.873Z,33.75
2023-02-12T08:00:18.856Z,33.75
2023-02-12T08:01:18.836Z,33.75
2023-02-12T08:02:18.871Z,39.38
2023-02-12T08:03:18.817Z,39.38
2023-02-12T08:04:18.894Z,39.38
2023-02-12T08:05:18.793Z,39.38
2023-02-12T08:06:18.779Z,39.38
2023-02-12T08:07:18.757Z,39.38
2023-02-12T08:08:18.756Z,39.38
2023-02-12T08:09:18.754Z,39.38
2023-02-12T08:10:18.728Z,39.38
2023-02-12T08:11:18.708Z,39.38
2023-02-12T08:12:18.706Z,39.38
2023-02-12T08:13:18.676Z,39.38
2023-02-12T08:14:18.696Z,39.38
2023-02-12T08:15:18.664Z,39.38
2023-02-12T08:16:18.674Z,45.00
2023-02-12T08:17:18.637Z,45.00
2023-02-12T08:18:18.616Z,45.00
2023-02-12T08:19:21.950Z,45.00
2023-02-12T08:20:19.587Z,45.00
2023-02-12T08:21:18.588Z,45.00
2023-02-12T08:22:18.576Z,45.00
2023-02-12T08:23:25.613Z,45.00
2023-02-12T08:24:18.555Z,45.00
2023-02-12T08:25:18.546Z,45.00
2023-02-12T08:26:18.512Z,45.00
2023-02-12T08:27:18.505Z,45.00
2023-02-12T08:28:18.542Z,45.00
2023-02-12T08:29:18.480Z,45.00
2023-02-12T08:30:18.473Z,45.00
2023-02-12T08:31:18.499Z,45.00
2023-02-12T08:32:18.526Z,45.00
2023-02-12T08:33:18.435Z,45.00
2023-02-12T08:34:18.463Z,45.00
2023-02-12T08:35:18.415Z,45.00
2023-02-12T08:36:18.386Z,45.00
2023-02-12T08:37:18.382Z,45.00
2023-02-12T08:38:18.350Z,45.00
2023-02-12T08:39:18.349Z,50.62
2023-02-12T08:40:18.341Z,50.62
2023-02-12T08:41:20.615Z,50.62
2023-02-12T08:42:18.301Z,50.62
2023-02-12T08:43:18.292Z,45.00
2023-02-12T08:44:18.300Z,45.00
2023-02-12T08:45:18.284Z,45.00
2023-02-12T08:46:18.305Z,50.62
2023-02-12T08:47:18.248Z,50.62
2023-02-12T08:48:18.229Z,50.62
2023-02-12T08:49:18.223Z,50.62
2023-02-12T08:50:18.216Z,50.62
2023-02-12T08:51:18.185Z,50.62
2023-02-12T08:52:18.178Z,50.62
2023-02-12T08:53:18.163Z,50.62
2023-02-12T08:54:18.208Z,50.62
2023-02-12T08:55:18.143Z,50.62
2023-02-12T08:56:18.128Z,50.62
2023-02-12T08:57:18.115Z,50.62
2023-02-12T08:58:18.093Z,50.62
2023-02-12T08:59:18.085Z,50.62
2023-02-12T09:00:18.092Z,50.62
2023-02-12T09:01:18.066Z,56.25
2023-02-12T09:02:18.054Z,56.25
2023-02-12T09:03:18.029Z,56.25
2023-02-12T09:04:18.187Z,61.88
2023-02-12T09:05:18.016Z,61.88
2023-02-12T09:06:17.991Z,67.50
2023-02-12T09:07:17.999Z,67.50
2023-02-12T09:08:17.969Z,67.50
2023-02-12T09:09:17.948Z,67.50
2023-02-12T09:10:17.942Z,67.50
2023-02-12T09:11:17.927Z,67.50
2023-02-12T09:12:17.909Z,67.50
2023-02-12T09:13:17.896Z,73.12
2023-02-12T09:14:17.877Z,73.12
2023-02-12T09:15:17.878Z,73.12
2023-02-12T09:16:17.882Z,73.12
2023-02-12T09:17:17.847Z,73.12
2023-02-12T09:18:17.826Z,73.12
2023-02-12T09:19:17.817Z,78.75
2023-02-12T09:20:17.825Z,84.38
2023-02-12T09:21:17.798Z,90.00
2023-02-12T09:22:17.780Z,95.62
2023-02-12T09:23:17.767Z,95.62
2023-02-12T09:24:17.797Z,101.25
2023-02-12T09:25:17.747Z,112.50
2023-02-12T09:26:17.727Z,118.12
2023-02-12T09:27:17.716Z,123.75
2023-02-12T09:28:17.719Z,129.38
2023-02-12T09:29:17.696Z,135.00
2023-02-12T09:30:17.688Z,135.00
2023-02-12T09:31:17.806Z,140.62
2023-02-12T09:32:17.647Z,146.25
2023-02-12T09:33:17.636Z,151.88
2023-02-12T09:34:17.627Z,151.88
2023-02-12T09:35:17.627Z,146.25
2023-02-12T09:36:17.623Z,135.00
2023-02-12T09:37:17.594Z,129.38
2023-02-12T09:38:17.568Z,123.75
2023-02-12T09:39:17.580Z,123.75
2023-02-12T09:40:17.557Z,118.12
2023-02-12T09:41:17.542Z,112.50
2023-02-12T09:42:17.524Z,106.88
2023-02-12T09:43:17.506Z,101.25
2023-02-12T09:44:17.498Z,95.62
2023-02-12T09:45:17.500Z,95.62
2023-02-12T09:46:17.510Z,95.62
2023-02-12T09:47:17.462Z,90.00
2023-02-12T09:48:17.466Z,90.00
2023-02-12T09:49:17.437Z,90.00
2023-02-12T09:50:17.435Z,90.00
2023-02-12T09:51:17.409Z,90.00
2023-02-12T09:52:17.415Z,90.00
2023-02-12T09:53:17.384Z,90.00
2023-02-12T09:54:17.376Z,95.62
2023-02-12T09:55:17.390Z,95.62
2023-02-12T09:56:17.357Z,101.25
2023-02-12T09:57:17.337Z,101.25
2023-02-12T09:58:17.329Z,101.25
2023-02-12T09:59:17.308Z,106.88
2023-02-12T10:00:17.310Z,106.88
2023-02-12T10:01:17.322Z,112.50
2023-02-12T10:02:17.280Z,118.12
2023-02-12T10:03:17.268Z,123.75
2023-02-12T10:04:17.261Z,123.75
2023-02-12T10:05:17.269Z,123.75
2023-02-12T10:06:17.232Z,123.75
2023-02-12T10:07:17.222Z,123.75
2023-02-12T10:08:17.209Z,129.38
2023-02-12T10:09:17.219Z,135.00
2023-02-12T10:10:17.193Z,140.62
2023-02-12T10:11:17.175Z,146.25
2023-02-12T10:12:17.149Z,146.25
2023-02-12T10:13:17.139Z,146.25
2023-02-12T10:14:17.130Z,146.25
2023-02-12T10:15:17.121Z,146.25
2023-02-12T10:16:17.214Z,140.62
2023-02-12T10:17:17.079Z,135.00
2023-02-12T10:18:17.072Z,135.00
2023-02-12T10:19:17.060Z,135.00
2023-02-12T10:20:17.061Z,140.62
2023-02-12T10:21:17.030Z,140.62
2023-02-12T10:22:17.020Z,135.00
2023-02-12T10:23:16.999Z,129.38
2023-02-12T10:24:17.023Z,129.38
2023-02-12T10:25:16.990Z,123.75
2023-02-12T10:26:16.969Z,123.75
2023-02-12T10:27:16.993Z,118.12
2023-02-12T10:28:16.997Z,112.50
2023-02-12T10:29:16.928Z,106.88
2023-02-12T10:30:16.915Z,101.25
2023-02-12T10:31:16.969Z,95.62
2023-02-12T10:32:16.906Z,95.62
2023-02-12T10:33:16.880Z,95.62
2023-02-12T10:34:16.864Z,95.62
2023-02-12T10:35:16.844Z,95.62
2023-02-12T10:36:16.846Z,90.00
2023-02-12T10:37:16.813Z,90.00
2023-02-12T10:38:16.806Z,90.00
2023-02-12T10:39:16.783Z,90.00
2023-02-12T10:40:16.819Z,90.00
2023-02-12T10:41:16.774Z,90.00
2023-02-12T10:42:16.760Z,90.00
2023-02-12T10:43:16.734Z,90.00
2023-02-12T10:44:16.723Z,90.00
2023-02-12T10:45:16.729Z,90.00
2023-02-12T10:46:16.742Z,90.00
2023-02-12T10:47:16.680Z,90.00
2023-02-12T10:48:17.038Z,90.00
2023-02-12T10:49:16.654Z,90.00
2023-02-12T10:50:16.640Z,90.00
2023-02-12T10:51:16.643Z,90.00
2023-02-12T10:52:16.624Z,90.00
2023-02-12T10:53:16.607Z,95.62
2023-02-12T10:54:16.619Z,95.62
2023-02-12T10:55:16.570Z,101.25
2023-02-12T10:56:16.620Z,101.25
2023-02-12T10:57:16.546Z,101.25
2023-02-12T10:58:16.539Z,101.25
2023-02-12T10:59:16.517Z,101.25
2023-02-12T11:00:16.507Z,101.25
2023-02-12T11:01:16.497Z,101.25
2023-02-12T11:02:16.486Z,101.25
2023-02-12T11:03:16.467Z,101.25
2023-02-12T11:04:16.457Z,101.25
2023-02-12T11:05:16.457Z,101.25
2023-02-12T11:06:16.449Z,101.25
2023-02-12T11:07:16.410Z,101.25
2023-02-12T11:08:16.397Z,101.25
2023-02-12T11:09:16.386Z,106.88
2023-02-12T11:10:16.376Z,112.50
2023-02-12T11:11:16.384Z,118.12
2023-02-12T11:12:16.365Z,123.75
2023-02-12T11:13:16.335Z,123.75
2023-02-12T11:14:16.331Z,118.12
2023-02-12T11:15:16.306Z,106.88
2023-02-12T11:16:16.351Z,101.25
2023-02-12T11:17:16.292Z,95.62
2023-02-12T11:18:16.270Z,95.62
2023-02-12T11:19:16.253Z,95.62
2023-02-12T11:20:16.261Z,95.62
2023-02-12T11:21:16.244Z,95.62
2023-02-12T11:22:16.223Z,101.25
2023-02-12T11:23:16.198Z,101.25
2023-02-12T11:24:16.186Z,106.88
2023-02-12T11:25:16.216Z,112.50
2023-02-12T11:26:16.176Z,118.12
2023-02-12T11:27:16.210Z,129.38
2023-02-12T11:28:16.175Z,140.62
2023-02-12T11:29:16.166Z,151.88
2023-02-12T11:30:16.114Z,163.12
2023-02-12T11:31:16.213Z,168.75
2023-02-12T11:32:16.082Z,174.38
2023-02-12T11:33:16.083Z,174.38
2023-02-12T11:34:16.053Z,163.12
2023-02-12T11:35:16.045Z,146.25
2023-02-12T11:36:16.032Z,135.00
2023-02-12T11:37:16.024Z,129.38
2023-02-12T11:38:16.004Z,123.75
2023-02-12T11:39:16.015Z,118.12
2023-02-12T11:40:15.982Z,118.12
2023-02-12T11:41:15.980Z,112.50
2023-02-12T11:42:15.947Z,106.88
2023-02-12T11:43:15.944Z,106.88
2023-02-12T11:44:15.926Z,112.50
2023-02-12T11:45:15.914Z,118.12
2023-02-12T11:46:16.031Z,129.38
2023-02-12T11:47:15.894Z,129.38
2023-02-12T11:48:15.888Z,129.38
2023-02-12T11:49:15.868Z,129.38
2023-02-12T11:50:15.876Z,129.38
2023-02-12T11:51:15.861Z,129.38
2023-02-12T11:52:15.816Z,135.00
2023-02-12T11:53:15.815Z,135.00
2023-02-12T11:54:15.815Z,135.00
2023-02-12T11:55:15.784Z,140.62
2023-02-12T11:56:15.777Z,140.62
2023-02-12T11:57:15.755Z,140.62
2023-02-12T11:58:15.739Z,146.25
2023-02-12T11:59:15.723Z,146.25
2023-02-12T12:00:15.710Z,146.25
2023-02-12T12:01:17.003Z,140.62
2023-02-12T12:02:15.842Z,140.62
2023-02-12T12:03:15.728Z,135.00
2023-02-12T12:04:15.655Z,135.00
2023-02-12T12:05:15.652Z,135.00
2023-02-12T12:06:15.644Z,129.38
2023-02-12T12:07:15.649Z,123.75
2023-02-12T12:08:16.756Z,123.75
2023-02-12T12:09:15.593Z,123.75
2023-02-12T12:10:15.581Z,123.75
2023-02-12T12:11:15.581Z,123.75
2023-02-12T12:12:15.551Z,123.75
2023-02-12T12:13:15.550Z,123.75
2023-02-12T12:14:15.532Z,118.12
2023-02-12T12:15:15.524Z,112.50
2023-02-12T12:16:15.588Z,106.88
2023-02-12T12:17:15.490Z,101.25
2023-02-12T12:18:15.472Z,95.62
2023-02-12T12:19:15.470Z,95.62
2023-02-12T12:20:15.460Z,95.62
2023-02-12T12:21:15.460Z,90.00
2023-02-12T12:22:15.444Z,90.00
2023-02-12T12:23:15.445Z,90.00
2023-02-12T12:24:15.401Z,90.00
2023-02-12T12:25:15.404Z,90.00
2023-02-12T12:26:15.391Z,90.00
2023-02-12T12:27:15.378Z,90.00
2023-02-12T12:28:15.371Z,90.00
2023-02-12T12:29:15.367Z,90.00
2023-02-12T12:30:15.327Z,90.00
2023-02-12T12:31:15.319Z,95.62
2023-02-12T12:32:15.300Z,95.62
2023-02-12T12:33:15.290Z,95.62
2023-02-12T12:34:15.290Z,101.25
2023-02-12T12:35:15.290Z,101.25
2023-02-12T12:36:15.241Z,101.25
2023-02-12T12:37:15.250Z,101.25
2023-02-12T12:38:15.219Z,101.25
2023-02-12T12:39:15.209Z,101.25
2023-02-12T12:40:15.200Z,101.25
2023-02-12T12:41:15.189Z,101.25
2023-02-12T12:42:15.179Z,101.25
2023-02-12T12:43:15.159Z,101.25
2023-02-12T12:44:15.138Z,101.25
2023-02-12T12:45:15.141Z,106.88
2023-02-12T12:46:15.152Z,106.88
2023-02-12T12:47:15.148Z,112.50
2023-02-12T12:48:15.093Z,118.12
2023-02-12T12:49:15.097Z,118.12
2023-02-12T12:50:15.067Z,112.50
2023-02-12T12:51:15.061Z,106.88
2023-02-12T12:52:15.048Z,106.88
2023-02-12T12:53:15.038Z,106.88
2023-02-12T12:54:15.012Z,106.88
2023-02-12T12:55:15.008Z,106.88
2023-02-12T12:56:14.992Z,106.88
2023-02-12T12:57:14.996Z,106.88
2023-02-12T12:58:14.967Z,112.50
2023-02-12T12:59:14.948Z,118.12
2023-02-12T13:00:14.937Z,118.12
2023-02-12T13:01:14.977Z,118.12
2023-02-12T13:02:14.962Z,118.12
2023-02-12T13:03:14.906Z,112.50
2023-02-12T13:04:14.895Z,101.25
2023-02-12T13:05:14.880Z,95.62
2023-02-12T13:06:14.860Z,95.62
2023-02-12T13:07:14.874Z,95.62
2023-02-12T13:08:14.830Z,95.62
2023-02-12T13:09:14.830Z,95.62
2023-02-12T13:10:14.808Z,95.62
2023-02-12T13:11:14.809Z,90.00
2023-02-12T13:12:14.802Z,84.38
2023-02-12T13:13:14.780Z,78.75
2023-02-12T13:14:14.757Z,78.75
2023-02-12T13:15:14.751Z,73.12
2023-02-12T13:16:14.772Z,73.12
2023-02-12T13:17:14.734Z,67.50
2023-02-12T13:18:14.716Z,67.50
2023-02-12T13:19:14.701Z,67.50
2023-02-12T13:20:14.694Z,61.88
2023-02-12T13:21:14.678Z,61.88
2023-02-12T13:22:14.682Z,61.88
2023-02-12T13:23:14.648Z,61.88
2023-02-12T13:24:14.641Z,61.88
2023-02-12T13:25:14.627Z,61.88
2023-02-12T13:26:14.611Z,61.88
2023-02-12T13:27:14.611Z,61.88
2023-02-12T13:28:14.676Z,67.50
2023-02-12T13:29:14.586Z,67.50
2023-02-12T13:30:14.571Z,67.50
2023-02-12T13:31:32.069Z,67.50
2023-02-12T13:32:15.591Z,67.50
2023-02-12T13:33:14.520Z,67.50
2023-02-12T13:34:14.500Z,67.50
2023-02-12T13:35:14.496Z,67.50
2023-02-12T13:36:14.476Z,67.50
2023-02-12T13:37:14.469Z,61.88
2023-02-12T13:38:14.457Z,61.88
2023-02-12T13:39:14.438Z,61.88
2023-02-12T13:40:14.431Z,61.88
2023-02-12T13:41:14.418Z,61.88
2023-02-12T13:42:14.387Z,56.25
2023-02-12T13:43:14.406Z,56.25
2023-02-12T13:44:14.367Z,56.25
2023-02-12T13:45:14.363Z,56.25
2023-02-12T13:46:14.378Z,61.88
2023-02-12T13:47:14.326Z,61.88
2023-02-12T13:48:14.327Z,61.88
2023-02-12T13:49:14.307Z,61.88
2023-02-12T13:50:14.286Z,61.88
2023-02-12T13:51:14.281Z,61.88
2023-02-12T13:52:14.280Z,61.88
2023-02-12T13:53:14.260Z,61.88
2023-02-12T13:54:14.226Z,61.88
2023-02-12T13:55:14.219Z,56.25
2023-02-12T13:56:14.206Z,56.25
2023-02-12T13:57:14.198Z,56.25
2023-02-12T13:58:14.192Z,56.25
2023-02-12T13:59:14.166Z,56.25
2023-02-12T14:00:14.155Z,56.25
2023-02-12T14:01:14.152Z,56.25
2023-02-12T14:02:14.153Z,56.25
2023-02-12T14:03:14.128Z,56.25
2023-02-12T14:04:14.104Z,56.25
2023-02-12T14:05:14.086Z,50.62
2023-02-12T14:06:14.101Z,50.62
2023-02-12T14:07:14.059Z,50.62
2023-02-12T14:08:14.065Z,50.62
2023-02-12T14:09:14.034Z,50.62
2023-02-12T14:10:14.023Z,50.62
2023-02-12T14:11:14.014Z,50.62
2023-02-12T14:12:13.992Z,50.62
2023-02-12T14:13:13.987Z,50.62
2023-02-12T14:14:13.972Z,50.62
2023-02-12T14:15:13.988Z,50.62
2023-02-12T14:16:13.968Z,50.62
2023-02-12T14:17:13.921Z,50.62
2023-02-12T14:18:13.922Z,45.00
2023-02-12T14:19:13.894Z,45.00
2023-02-12T14:20:13.908Z,45.00
2023-02-12T14:21:13.904Z,45.00
2023-02-12T14:22:13.865Z,45.00
2023-02-12T14:23:13.851Z,39.38
2023-02-12T14:24:20.900Z,39.38
2023-02-12T14:25:13.858Z,39.38
2023-02-12T14:26:13.805Z,39.38
2023-02-12T14:27:13.797Z,39.38
2023-02-12T14:28:13.829Z,39.38
2023-02-12T14:29:13.767Z,33.75
2023-02-12T14:30:13.807Z,33.75
2023-02-12T14:31:13.821Z,33.75
2023-02-12T14:32:13.724Z,33.75
2023-02-12T14:33:13.739Z,33.75
2023-02-12T14:34:13.704Z,33.75
2023-02-12T14:35:13.688Z,33.75
2023-02-12T14:36:13.675Z,33.75
2023-02-12T14:37:13.665Z,33.75
2023-02-12T14:38:13.655Z,33.75
2023-02-12T14:39:13.635Z,33.75
2023-02-12T14:40:13.617Z,33.75
2023-02-12T14:41:13.607Z,28.12
2023-02-12T14:42:13.587Z,28.12
2023-02-12T14:43:13.593Z,28.12
2023-02-12T14:44:13.566Z,28.12
2023-02-12T14:45:13.554Z,28.12
2023-02-12T14:46:13.612Z,28.12
2023-02-12T14:47:13.524Z,28.12
2023-02-12T14:48:13.527Z,28.12
2023-02-12T14:49:13.504Z,28.12
2023-02-12T14:50:13.482Z,28.12
2023-02-12T14:51:13.475Z,28.12
2023-02-12T14:52:13.473Z,22.50
2023-02-12T14:53:13.451Z,22.50
2023-02-12T14:54:13.432Z,22.50
2023-02-12T14:55:13.431Z,22.50
2023-02-12T14:56:13.401Z,22.50
2023-02-12T14:57:13.401Z,22.50
2023-02-12T14:58:13.389Z,22.50
2023-02-12T14:59:13.370Z,22.50
2023-02-12T15:00:13.350Z,22.50
2023-02-12T15:01:13.361Z,22.50
2023-02-12T15:02:13.322Z,22.50
2023-02-12T15:03:13.343Z,22.50
2023-02-12T15:04:13.321Z,22.50
2023-02-12T15:05:13.312Z,22.50
2023-02-12T15:06:13.279Z,22.50
2023-02-12T15:07:13.261Z,16.88
2023-02-12T15:08:13.248Z,16.88
2023-02-12T15:09:13.248Z,16.88
2023-02-12T15:10:13.220Z,16.88
2023-02-12T15:11:13.208Z,16.88
2023-02-12T15:12:13.189Z,16.88
2023-02-12T15:13:13.181Z,16.88
2023-02-12T15:14:13.168Z,16.88
2023-02-12T15:15:13.165Z,16.88
2023-02-12T15:16:13.188Z,16.88
2023-02-12T15:17:13.127Z,16.88
2023-02-12T15:18:13.108Z,16.88
2023-02-12T15:19:13.108Z,16.88
2023-02-12T15:20:13.078Z,16.88
2023-02-12T15:21:13.078Z,16.88
2023-02-12T15:22:13.059Z,16.88
2023-02-12T15:23:13.038Z,11.25
2023-02-12T15:24:13.042Z,11.25
2023-02-12T15:25:13.029Z,11.25
2023-02-12T15:26:13.008Z,11.25
2023-02-12T15:27:12.990Z,11.25
2023-02-12T15:28:13.001Z,11.25
2023-02-12T15:29:12.979Z,11.25
2023-02-12T15:30:20.962Z,11.25
2023-02-12T15:31:14.091Z,11.25
2023-02-12T15:32:12.919Z,11.25
2023-02-12T15:33:14.510Z,11.25
2023-02-12T15:34:12.941Z,11.25
2023-02-12T15:35:12.890Z,11.25
2023-02-12T15:36:12.868Z,11.25
2023-02-12T15:37:12.868Z,11.25
2023-02-12T15:38:12.861Z,11.25
2023-02-12T15:39:12.838Z,11.25
2023-02-12T15:40:12.818Z,11.25
2023-02-12T15:41:12.818Z,11.25
2023-02-12T15:42:12.788Z,11.25
2023-02-12T15:43:12.786Z,11.25
2023-02-12T15:44:12.775Z,11.25
2023-02-12T15:45:12.763Z,11.25
2023-02-12T15:46:12.760Z,5.62
2023-02-12T15:47:12.779Z,5.62
2023-02-12T15:48:12.721Z,5.62
2023-02-12T15:49:12.715Z,5.62
2023-02-12T15:50:12.689Z,5.62
2023-02-12T15:51:12.685Z,5.62
2023-02-12T15:52:12.657Z,5.62
2023-02-12T15:53:12.646Z,5.62
2023-02-12T15:54:12.646Z,5.62
2023-02-12T15:55:12.630Z,5.62
2023-02-12T15:56:12.611Z,5.62
2023-02-12T15:57:12.605Z,5.62
2023-02-12T15:58:12.587Z,5.62
2023-02-12T15:59:12.577Z,5.62
2023-02-12T16:00:12.547Z,5.62
2023-02-12T16:01:12.547Z,5.62
2023-02-12T16:02:12.526Z,5.62
2023-02-12T16:03:12.517Z,5.62
2023-02-12T16:04:12.573Z,5.62
2023-02-12T16:05:12.488Z,5.62
2023-02-12T16:06:12.475Z,5.62
2023-02-12T16:07:12.464Z,5.62
2023-02-12T16:08:12.445Z,5.62
2023-02-12T16:09:12.460Z,5.62
2023-02-12T16:10:12.419Z,0.00
2023-02-12T16:11:12.409Z,0.00
2023-02-12T16:12:12.394Z,0.00
2023-02-12T16:13:12.384Z,0.00
2023-02-12T16:14:12.375Z,0.00
2023-02-12T16:15:12.355Z,0.00
2023-02-12T16:16:12.400Z,0.00
2023-02-12T16:17:12.335Z,0.00
2023-02-12T16:18:12.353Z,0.00
2023-02-12T16:19:12.305Z,0.00
2023-02-12T16:20:12.284Z,0.00
2023-02-12T16:21:12.284Z,0.00
2023-02-12T16:22:12.264Z,0.00
2023-02-12T16:23:12.254Z,0.00
2023-02-12T16:24:12.243Z,0.00
2023-02-12T16:25:12.224Z,0.00
2023-02-12T16:26:12.205Z,0.00
2023-02-12T16:27:12.198Z,0.00
2023-02-12T16:28:12.229Z,0.00
2023-02-12T16:29:12.193Z,0.00
2023-02-12T16:30:12.172Z,0.00
2023-02-12T16:31:12.263Z,0.00
2023-02-12T16:32:12.141Z,0.00
2023-02-12T16:33:12.115Z,0.00
2023-02-12T16:34:12.136Z,0.00
2023-02-12T16:35:12.162Z,0.00
2023-02-12T16:36:12.073Z,0.00
2023-02-12T16:37:12.063Z,0.00
2023-02-12T16:38:12.046Z,0.00
2023-02-12T16:39:12.042Z,0.00
2023-02-12T16:40:12.046Z,0.00
2023-02-12T16:41:12.014Z,0.00
2023-02-12T16:42:11.996Z,0.00
2023-02-12T16:43:11.992Z,0.00
2023-02-12T16:44:11.980Z,0.00
2023-02-12T16:45:12.002Z,0.00
2023-02-12T16:46:12.017Z,0.00
2023-02-12T16:47:11.955Z,0.00
2023-02-12T16:48:11.911Z,0.00
2023-02-12T16:49:11.942Z,0.00
2023-02-12T16:50:11.902Z,0.00
2023-02-12T16:51:11.881Z,0.00
2023-02-12T16:52:11.864Z,0.00
2023-02-12T16:53:11.869Z,0.00
2023-02-12T16:54:11.840Z,0.00
2023-02-12T16:55:11.850Z,0.00
2023-02-12T16:56:11.822Z,0.00
2023-02-12T16:57:11.812Z,0.00
2023-02-12T16:58:11.793Z,0.00
2023-02-12T16:59:11.780Z,0.00
2023-02-12T17:00:11.780Z,0.00
2023-02-12T17:01:11.831Z,0.00
2023-02-12T17:02:11.750Z,0.00
2023-02-12T17:03:11.755Z,0.00
2023-02-12T17:04:11.721Z,0.00
2023-02-12T17:05:11.711Z,0.00
2023-02-12T17:06:11.694Z,0.00
2023-02-12T17:07:11.691Z,0.00
2023-02-12T17:08:11.662Z,0.00
2023-02-12T17:09:11.656Z,0.00
2023-02-12T17:10:11.646Z,0.00
2023-02-12T17:11:11.634Z,0.00
2023-02-12T17:12:11.626Z,0.00
2023-02-12T17:13:11.614Z,0.00
2023-02-12T17:14:11.582Z,0.00
2023-02-12T17:15:11.581Z,0.00
2023-02-12T17:16:14.492Z,0.00
2023-02-12T17:17:12.550Z,0.00
2023-02-12T17:18:11.530Z,0.00
2023-02-12T17:19:11.520Z,0.00
2023-02-12T17:20:11.525Z,0.00
2023-02-12T17:21:11.491Z,0.00
2023-02-12T17:22:11.481Z,0.00
2023-02-12T17:23:11.475Z,0.00
2023-02-12T17:24:11.448Z,0.00
2023-02-12T17:25:11.444Z,0.00
2023-02-12T17:26:11.430Z,0.00
2023-02-12T17:27:11.410Z,0.00
2023-02-12T17:28:11.419Z,0.00
2023-02-12T17:29:11.393Z,0.00
2023-02-12T17:30:11.398Z,0.00
2023-02-12T17:31:11.443Z,0.00
2023-02-12T17:32:11.412Z,0.00
2023-02-12T17:33:11.339Z,0.00
2023-02-12T17:34:11.322Z,0.00
2023-02-12T17:35:11.324Z,0.00
2023-02-12T17:36:11.308Z,0.00
2023-02-12T17:37:11.284Z,0.00
2023-02-12T17:38:11.268Z,0.00
2023-02-12T17:39:11.258Z,0.00
2023-02-12T17:40:11.269Z,0.00
2023-02-12T17:41:11.227Z,0.00
2023-02-12T17:42:11.240Z,0.00
2023-02-12T17:43:11.248Z,0.00
2023-02-12T17:44:11.200Z,0.00
2023-02-12T17:45:11.192Z,0.00
2023-02-12T17:46:11.234Z,0.00
2023-02-12T17:47:11.151Z,0.00
2023-02-12T17:48:11.155Z,0.00
2023-02-12T17:49:11.132Z,0.00
2023-02-12T17:50:11.132Z,0.00
2023-02-12T17:51:11.117Z,0.00
2023-02-12T17:52:11.089Z,0.00
2023-02-12T17:53:11.090Z,0.00
2023-02-12T17:54:11.071Z,0.00
2023-02-12T17:55:11.049Z,0.00
2023-02-12T17:56:11.056Z,0.00
2023-02-12T17:57:12.383Z,0.00
2023-02-12T17:58:11.007Z,0.00
2023-02-12T17:59:10.994Z,0.00
2023-02-12T18:00:10.990Z,0.00
2023-02-12T18:01:10.996Z,0.00
2023-02-12T18:02:10.957Z,0.00
2023-02-12T18:03:10.944Z,0.00
2023-02-12T18:04:11.031Z,0.00
2023-02-12T18:05:10.916Z,0.00
2023-02-12T18:06:10.922Z,0.00
2023-02-12T18:07:10.896Z,0.00
2023-02-12T18:08:10.887Z,0.00
2023-02-12T18:09:10.867Z,0.00
2023-02-12T18:10:11.664Z,0.00
2023-02-12T18:11:10.855Z,0.00